Terminal Aerodrome Forecast
Issued by NWS

Home | Current Version | Previous Version | Text Only | Print | Product List | Glossary Off
Versions: 1 2 3 4 5 6 7 8 9 10 11 12 13 14 15

000
FTUS43 KGRB 241000 AAA
TAFMTW
TAF AMD
KMTW 241046Z 2411/2506 VRB03KT P6SM SKC
      TEMPO 2411/2412 1SM BR SCT003
     FM241300 09006KT P6SM BKN200
     FM241800 13008KT P6SM BKN100
     FM242300 09007KT P6SM OVC070=

USA.gov is the U.S. government's official web portal to all federal, state and local government web resources and services.